Insider Trading activities of Ball Corp insiders. , Part 2

Monthly summaries of insider trading activities (stock purchases, sales, and option exercises) reported by insiders of Ball Corp since 2005 are illustrated in Table 1 and Table 2. Table 1 shows the monthly insider trading data of Ball Corp since year 2005. (See page 1 of this report.) Table 2 shows the detailed insider transactions of Ball Corp since 2005. The reporting company's ticker symbol is BLL. The reporting company's CIK number is 9389.
The total value of stock buying since 2005 is $5,702,894.
The total value of stock sales since 2005 is $154,999,202.
The total value of stock option exercises since 2005 is $108,604,262.


 1   2   3   4 

Table 2. Detailed insider stock purchases, sales, and option exercises of Ball Corp insiders (BLL) , Part 2
  Trade Date   Insider Name Trade Type     Shares       Price ($)   Value ($)
2015-03-17 Pauley Lisa Ann (SR VP, HR & Administration) Option Ex 4,250 19.87 84,447
2015-03-16 Pauley Lisa Ann (SR VP, HR & Administration) Sale 4,250 69.94 297,249
2015-03-16 Pauley Lisa Ann (SR VP, HR & Administration) Option Ex 4,250 19.87 84,447
2015-02-26 Baker Charles E (VP,GEN COUNSEL & CORP SEC) Sale 9,000 72.41 651,708
2015-02-26 Baker Charles E (VP,GEN COUNSEL & CORP SEC) Option Ex 9,000 19.87 178,830
2015-02-24 Peterson James N (VP, Marketing & Corp. Affairs) Sale 1,000 73.09 73,090
2015-02-24 Peterson James N (VP, Marketing & Corp. Affairs) Option Ex 1,000 73.09 73,090
2015-02-24 Baker Charles E (VP,GEN COUNSEL & CORP SEC) Option Ex 5,000 19.87 99,350
2014-12-05 Bradford Douglas K (V.P., GLOBAL TAX) Sale 4,621 69.56 321,455
2014-12-02 Bradford Douglas K (V.P., GLOBAL TAX) Option Ex 24,000 21.24 509,831
2014-09-16 Hoover R David (Director) Sale 82,000 65.61 5,379,610
2014-09-16 Hoover R David (Director) Option Ex 82,000 19.87 1,629,340
2014-09-11 Pauley Lisa Ann (SR VP, HR & Administration) Sale 24,364 65.78 1,600,666
2014-09-11 Pauley Lisa Ann (SR VP, HR & Administration) Option Ex 15,793 20.86 329,410
2014-09-10 Pauley Lisa Ann (SR VP, HR & Administration) Sale 12,207 66.00 805,662
2014-09-10 Pauley Lisa Ann (SR VP, HR & Administration) Option Ex 12,207 19.87 242,553
2014-09-08 Pauley Lisa Ann (SR VP, HR & Administration) Option Ex 24,000 21.84 524,280
2014-09-04 Nicholson Jan (Director) Sale 50,000 66.16 3,307,950
2014-08-29 Knobel Jeff A (Vice President & Treasurer) Sale 4,800 64.04 307,396
2014-08-29 Knobel Jeff A (Vice President & Treasurer) Option Ex 4,800 25.05 120,264
2014-06-20 Pauley Lisa Ann (SR VP, HR & Administration) Sale 12,960 61.22 793,411
2014-06-18 Baker Charles E (VP,GEN COUNSEL & CORP SEC) Sale 10,000 60.72 607,230
2014-06-13 Morrison Scott C (SR. V.P. and C.F.O.) Sale 5,000 60.26 301,310
2014-06-11 Morrison Scott C (SR. V.P. and C.F.O.) Option Ex 8,000 21.84 174,760
2014-05-19 Hayes John A (CHAIRMAN, PRESIDENT & C.E.O..) Sale 16,499 60.26 994,229
2014-05-16 Hayes John A (CHAIRMAN, PRESIDENT & C.E.O..) Option Ex 60,000 24.66 1,479,600
2014-05-12 Hoover R David (Director) Sale 20,800 59.09 1,228,968
2014-05-06 Barker Shawn M (Vice President & Controller) Sale 6,000 56.41 338,460
2014-03-18 Pauley Lisa Ann (SR VP, HR & Administration) Sale 20,000 54.67 1,093,160
2014-03-18 Pauley Lisa Ann (SR VP, HR & Administration) Option Ex 20,000 17.05 341,100
2014-03-17 Pauley Lisa Ann (SR VP, HR & Administration) Sale 5,600 54.03 302,568
2014-03-17 Pauley Lisa Ann (SR VP, HR & Administration) Option Ex 5,600 17.05 95,508
2014-03-06 Bradford Douglas K (V.P. FINANCIAL REPORTING & TAX) Sale 4,678 56.06 262,244
2014-03-03 Bradford Douglas K (V.P. FINANCIAL REPORTING & TAX) Sale 12,000 55.20 662,364
2014-03-03 Bradford Douglas K (V.P. FINANCIAL REPORTING & TAX) Option Ex 12,000 19.87 238,440
2014-02-10 Peterson James N (VP, Marketing & Corp. Affairs) Sale 423 53.26 22,528
2013-12-03 Hayes John A (CHAIRMAN, PRESIDENT & C.E.O..) Sale 20,000 49.47 989,419
2013-11-15 Knobel Jeff A (Vice President & Treasurer) Sale 4,800 49.94 239,712
2013-11-15 Knobel Jeff A (Vice President & Treasurer) Option Ex 4,800 24.66 118,368
2013-11-12 Baker Charles E (VP,GEN COUNSEL & CORP SEC) Option Ex 4,000 25.23 100,900
2013-11-06 Morrison Scott C (SR. V.P. and C.F.O.) Sale 8,520 49.81 424,406
2013-11-06 Morrison Scott C (SR. V.P. and C.F.O.) Option Ex 8,520 19.87 169,292
2013-11-06 Bradford Douglas K (V.P. FINANCIAL REPORTING & TAX) Sale 525 49.85 26,171
2013-09-10 Williams Leroy James Jr (VP Information & Tech Services) Sale 9,800 45.49 445,792
2013-09-10 Williams Leroy James Jr (VP Information & Tech Services) Option Ex 9,800 28.16 275,968
2013-09-09 Baker Charles E (VP,GEN COUNSEL & CORP SEC) Option Ex 1,000 25.23 25,225
2013-08-23 Baker Charles E (VP,GEN COUNSEL & CORP SEC) Sale 2,000 45.60 91,200
2013-07-31 Baker Charles E (VP,GEN COUNSEL & CORP SEC) Sale 6,000 45.12 270,720
2013-07-30 Baker Charles E (VP,GEN COUNSEL & CORP SEC) Sale 3,001 44.93 134,822
2013-07-29 Baker Charles E (VP,GEN COUNSEL & CORP SEC) Sale 6,199 44.90 278,316
2013-05-24 Baker Charles E (VP,GEN COUNSEL & CORP SEC) Option Ex 6,630 44.39 294,305
2013-05-21 Heske Gerrit (Sr VP, COO, Global MB Pkging) Sale 5,350 45.26 242,141
2013-05-16 Heske Gerrit (Sr VP, COO, Global MB Pkging) Sale 11,114 45.25 502,875
2013-05-15 Heske Gerrit (Sr VP, COO, Global MB Pkging) Sale 1,208 45.26 54,674
2013-05-14 Knobel Jeff A (Vice President & Treasurer) Sale 6,000 45.86 275,160
2013-05-14 Knobel Jeff A (Vice President & Treasurer) Option Ex 6,000 45.85 275,118
2013-05-13 Barker Shawn M (Vice President & Controller) Sale 6,675 45.62 304,533
2013-04-29 Strain Robert D (Sr VP & Pres-Ball Aerospace) Buy 450 43.98 19,791
2013-03-04 Hoover R David (Director) Sale 20,088 43.79 879,673
2013-03-04 Hoover R David (Director) Option Ex 20,088 43.79 879,713
2013-02-08 Hoover R David (Director) Option Ex 108,305 44.63 4,834,193
2012-12-18 Pauley Lisa Ann (SR VP, HR & Administration) Sale 9,000 44.38 399,420
2012-12-18 Pauley Lisa Ann (SR VP, HR & Administration) Option Ex 9,000 14.08 126,702
2012-12-18 Bradford Douglas K (V.P. FINANCIAL REPORTING & TAX) Sale 10,000 44.31 443,070
2012-12-14 Solso Theodore M (Director) Sale 5,320 44.08 234,505
2012-12-14 Solso Theodore M (Director) Option Ex 16,000 14.08 225,248
2012-12-10 Seabrook Raymond J (EXEC. V.P. & C.O.O. GLOBAL PKG) Sale 94,602 44.45 4,204,775
2012-12-07 Hayes John A (PRESIDENT & C.E.O. BALL CORP.) Sale 12,650 44.02 556,853
2012-12-03 Hoover R David (Director) Sale 50,000 44.14 2,206,950
2012-12-03 Hoover R David (Director) Option Ex 50,000 14.08 703,900
2012-11-30 Hayes John A (PRESIDENT & C.E.O. BALL CORP.) Sale 21,936 44.73 981,306
2012-11-30 Hayes John A (PRESIDENT & C.E.O. BALL CORP.) Option Ex 63,936 20.86 1,333,577
2012-11-30 Hoover R David (Director) Sale 50,000 44.68 2,233,950
2012-11-29 Baker Charles E (VP,GEN COUNSEL & CORP SEC) Option Ex 1,000 21.84 21,845
2012-11-27 Seabrook Raymond J (EXEC. V.P. & C.O.O. GLOBAL PKG) Sale 133,333 44.39 5,918,251
2012-11-27 Seabrook Raymond J (EXEC. V.P. & C.O.O. GLOBAL PKG) Option Ex 17,088 14.08 240,564
2012-11-26 Seabrook Raymond J (EXEC. V.P. & C.O.O. GLOBAL PKG) Sale 8,755 44.57 390,175
2012-11-20 Morrison Scott C (SR. V.P. and C.F.O.) Sale 7,500 44.34 332,565
2012-11-13 Knobel Jeff A (Vice President & Treasurer) Sale 2,300 43.79 100,726
2012-11-13 Knobel Jeff A (Vice President & Treasurer) Option Ex 2,300 19.87 45,701
2012-11-09 Barker Shawn M (Vice President & Controller) Sale 3,000 44.15 132,456
2012-11-09 Baker Charles E (VP,GEN COUNSEL & CORP SEC) Sale 4,000 43.49 173,976
2012-11-08 Baker Charles E (VP,GEN COUNSEL & CORP SEC) Sale 8,000 43.74 349,960
2012-10-05 Baker Charles E (VP,GEN COUNSEL & CORP SEC) Option Ex 2,000 21.84 43,690
2012-09-19 Pauley Lisa Ann (SR VP, HR & Administration) Sale 6,224 42.99 267,600
2012-09-19 Pauley Lisa Ann (SR VP, HR & Administration) Option Ex 14,000 14.08 197,092
2012-09-18 Hayes John A (PRESIDENT & C.E.O. BALL CORP.) Sale 12,000 42.86 514,331
2012-09-18 Hayes John A (PRESIDENT & C.E.O. BALL CORP.) Option Ex 12,000 14.08 168,936
2012-09-12 Hoover R David (Director) Sale 35,000 42.78 1,497,230
2012-09-12 Hoover R David (Director) Option Ex 35,000 14.08 492,730
2012-08-28 Baker Charles E (VP,GEN COUNSEL & CORP SEC) Option Ex 8,850 20.94 185,336
2012-08-22 Morrison Scott C (SR. V.P. and C.F.O.) Sale 5,000 42.44 212,200
2012-08-22 Morrison Scott C (SR. V.P. and C.F.O.) Option Ex 5,000 14.08 70,390
2012-08-20 Bradford Douglas K (V.P. FINANCIAL REPORTING & TAX) Sale 15,000 42.76 641,460
2012-07-31 Seabrook Raymond J (EXEC. V.P. & C.O.O. GLOBAL PKG) Sale 4,730 41.74 197,430
2012-05-16 Seabrook Raymond J (EXEC. V.P. & C.O.O. GLOBAL PKG) Option Ex 275 25.05 6,890
2012-05-02 Bradford Douglas K (V.P. FINANCIAL REPORTING & TAX) Sale 15,000 41.38 620,625
2012-05-01 Morrison Scott C (SR. V.P. and C.F.O.) Sale 5,000 42.07 210,350
2012-05-01 Morrison Scott C (SR. V.P. and C.F.O.) Option Ex 5,000 14.08 70,390
2012-05-01 Bradford Douglas K (V.P. FINANCIAL REPORTING & TAX) Sale 18,000 42.02 756,396
2012-05-01 Bradford Douglas K (V.P. FINANCIAL REPORTING & TAX) Option Ex 18,000 14.08 253,404
2012-04-02 Hoover R David (Director) Sale 15,000 42.76 641,460
2012-04-02 Hoover R David (Director) Option Ex 15,000 11.87 178,095
2012-03-23 Pauley Lisa Ann (SR VP, HR & Administration) Sale 15,162 40.98 621,399
2012-03-23 Pauley Lisa Ann (SR VP, HR & Administration) Option Ex 26,000 11.87 308,698
2012-03-16 Hoover R David (Director) Sale 25,000 40.74 1,018,500
2012-03-16 Hoover R David (Director) Option Ex 25,000 11.87 296,825
2012-03-15 Seabrook Raymond J (EXEC. V.P. & C.O.O. GLOBAL PKG) Sale 8,000 40.28 322,240
2012-03-15 Seabrook Raymond J (EXEC. V.P. & C.O.O. GLOBAL PKG) Option Ex 8,000 11.87 94,984
2012-03-09 Williams Leroy James Jr (VP Information & Tech Services) Sale 3,373 39.84 134,380
2012-03-01 Seabrook Raymond J (EXEC. V.P. & C.O.O. GLOBAL PKG) Sale 8,000 40.05 320,400
2012-03-01 Seabrook Raymond J (EXEC. V.P. & C.O.O. GLOBAL PKG) Option Ex 8,000 11.87 94,984
2012-03-01 Hoover R David (Director) Sale 25,000 40.05 1,001,249
2012-03-01 Hoover R David (Director) Option Ex 25,000 11.87 296,825
2012-02-28 Williams Leroy James Jr (VP Information & Tech Services) Option Ex 14,000 20.04 280,560
2012-02-21 Hayes John A (PRESIDENT & C.E.O. BALL CORP.) Sale 8,000 40.32 322,560
2012-02-21 Hayes John A (PRESIDENT & C.E.O. BALL CORP.) Option Ex 8,000 11.87 94,984
2012-02-16 Hoover R David (Director) Sale 25,000 39.68 992,000
2012-02-16 Hoover R David (Director) Option Ex 25,000 11.87 296,825
2012-02-15 Seabrook Raymond J (EXEC. V.P. & C.O.O. GLOBAL PKG) Sale 8,000 39.92 319,360
2012-02-15 Seabrook Raymond J (EXEC. V.P. & C.O.O. GLOBAL PKG) Option Ex 8,000 11.87 94,984
2012-02-10 Peterson James N (VP, Marketing & Corp. Affairs) Option Ex 570 20.04 11,422
2012-02-10 Hoover R David (Director) Option Ex 148,880 37.48 5,580,766
2012-02-02 Knobel Jeff A (Vice President & Treasurer) Sale 5,500 40.11 220,605
2012-02-02 Knobel Jeff A (Vice President & Treasurer) Option Ex 9,550 19.41 185,384
2012-02-01 Seabrook Raymond J (EXEC. V.P. & C.O.O. GLOBAL PKG) Sale 8,000 39.45 315,600
2012-02-01 Seabrook Raymond J (EXEC. V.P. & C.O.O. GLOBAL PKG) Option Ex 9,700 18.55 179,925
2012-02-01 Hoover R David (Director) Sale 37,000 39.56 1,463,683
2012-02-01 Hoover R David (Director) Option Ex 37,000 11.87 439,301
2012-02-01 Nicholson Jan (Director) Sale 4,874 40.59 197,821
2012-02-01 Nicholson Jan (Director) Option Ex 16,000 11.87 189,968
2012-01-31 Barker Shawn M (Vice President & Controller) Sale 3,724 39.16 145,813
2012-01-31 Barker Shawn M (Vice President & Controller) Option Ex 24,775 24.49 606,665
2012-01-26 Hoover R David (Director) Sale 12,000 39.00 468,000
2012-01-26 Hoover R David (Director) Option Ex 12,000 11.87 142,476
2012-01-24 Lehman John F (Director) Option Ex 16,000 11.87 189,968
2012-01-19 Hoover R David (Director) Sale 12,000 38.00 456,000
2012-01-19 Hoover R David (Director) Option Ex 12,000 11.87 142,476
2012-01-17 Seabrook Raymond J (EXEC. V.P. & C.O.O. GLOBAL PKG) Sale 8,000 37.75 302,000
2012-01-17 Seabrook Raymond J (EXEC. V.P. & C.O.O. GLOBAL PKG) Option Ex 8,000 11.87 94,984
2012-01-17 Hoover R David (Director) Sale 25,000 37.79 944,750
2012-01-17 Hoover R David (Director) Option Ex 25,000 11.87 296,825
2012-01-06 Hoover R David (Director) Sale 11,000 37.00 407,000
2012-01-06 Hoover R David (Director) Option Ex 11,000 11.87 130,602
2012-01-03 Seabrook Raymond J (EXEC. V.P. & C.O.O. GLOBAL PKG) Sale 8,000 35.91 287,280
2012-01-03 Seabrook Raymond J (EXEC. V.P. & C.O.O. GLOBAL PKG) Option Ex 8,000 11.87 94,984
2012-01-03 Hoover R David (Director) Sale 35,000 35.95 1,258,425
2012-01-03 Hoover R David (Director) Option Ex 35,000 11.87 415,555
2011-12-27 Hoover R David (Director) Sale 15,000 36.00 540,000
2011-12-27 Hoover R David (Director) Option Ex 15,000 11.87 178,095
 1   2   3   4 

Insider trading activities including stock purchases, stock sales, and option exercises of BLL listed in the above tables cannot be completely guaranteed as to their accuracy. For more insider trading information of Ball Corp (symbol BLL, CIK number 9389) see the Securities and Exchange Commission (SEC) website.